Time;durP1;ratioP1;P1;durP2;ratioP2;P2;SDS_P1;SDS_P2;PMS_P1;PMS_P2;Temp;Humidity;BMP_temperature;BMP_pressure;BME280_temperature;BME280_humidity;BME280_pressure;Samples;Min_cycle;Max_cycle;Signal;HPM_P1;HPM_P2
2022/09/01 00:01:26;;;;;;;1.70;1.60;;;;;;;;;;5077282;28;20028;-66
2022/09/01 00:03:52;;;;;;;1.67;1.40;;;;;;;;;;4993405;28;20063;-66
2022/09/01 00:06:22;;;;;;;3.47;1.48;;;;;;;;;;5060347;28;20469;-66
2022/09/01 00:08:48;;;;;;;2.08;1.52;;;;;;;;;;4993124;28;20062;-66
2022/09/01 00:11:14;;;;;;;2.40;1.50;;;;;;;;;;4992765;28;20070;-66
2022/09/01 00:13:40;;;;;;;1.30;1.20;;;;;;;;;;4992638;28;20361;-66
2022/09/01 00:16:05;;;;;;;1.60;1.50;;;;;;;;;;4992810;28;20477;-66
2022/09/01 00:18:31;;;;;;;1.70;1.40;;;;;;;;;;5060205;28;20034;-66
2022/09/01 00:20:58;;;;;;;1.60;1.50;;;;;;;;;;4992801;28;20396;-66
2022/09/01 00:23:24;;;;;;;3.33;1.38;;;;;;;;;;5060115;28;20422;-66
2022/09/01 00:25:50;;;;;;;1.75;1.40;;;;;;;;;;4992307;28;20138;-67
2022/09/01 00:28:15;;;;;;;2.78;1.50;;;;;;;;;;4992658;28;20057;-67
2022/09/01 00:30:41;;;;;;;1.50;1.40;;;;;;;;;;4992327;28;20031;-67
2022/09/01 00:33:07;;;;;;;2.67;1.90;;;;;;;;;;4992763;28;20082;-66
2022/09/01 00:35:32;;;;;;;2.47;1.60;;;;;;;;;;4992558;28;20038;-68
2022/09/01 00:37:57;;;;;;;5.40;1.73;;;;;;;;;;5059714;28;20416;-67
2022/09/01 00:40:23;;;;;;;1.70;1.60;;;;;;;;;;5059151;28;20385;-67
2022/09/01 00:42:49;;;;;;;3.13;1.50;;;;;;;;;;4992185;28;20026;-67
2022/09/01 00:45:14;;;;;;;1.55;1.45;;;;;;;;;;4992194;28;20022;-67
2022/09/01 00:47:40;;;;;;;1.65;1.55;;;;;;;;;;5059620;28;20079;-67
2022/09/01 00:50:06;;;;;;;1.75;1.42;;;;;;;;;;4992620;28;20031;-67
2022/09/01 00:52:39;;;;;;;1.60;1.50;;;;;;;;;;4992385;28;20030;-67
2022/09/01 00:55:16;;;;;;;1.42;1.30;;;;;;;;;;5076004;28;20042;-67
2022/09/01 00:57:42;;;;;;;1.55;1.45;;;;;;;;;;4992379;28;20057;-67
2022/09/01 01:00:28;;;;;;;1.50;1.38;;;;;;;;;;5059181;28;20480;-67
2022/09/01 01:02:55;;;;;;;3.15;1.38;;;;;;;;;;4992261;28;20450;-67
2022/09/01 01:05:50;;;;;;;1.67;1.58;;;;;;;;;;5059162;28;20424;-67
2022/09/01 01:08:18;;;;;;;2.15;1.40;;;;;;;;;;4992771;28;20041;-67
2022/09/01 01:10:43;;;;;;;2.67;1.52;;;;;;;;;;5059493;28;20082;-66
2022/09/01 01:13:14;;;;;;;1.63;1.52;;;;;;;;;;5059361;28;20416;-66
2022/09/01 01:15:43;;;;;;;3.40;1.30;;;;;;;;;;4991927;28;20022;-67
2022/09/01 01:18:12;;;;;;;3.88;1.40;;;;;;;;;;5075662;28;20034;-66
2022/09/01 01:23:39;;;;;;;5.32;1.50;;;;;;;;;;5058976;28;20418;-66
2022/09/01 01:26:08;;;;;;;2.20;1.38;;;;;;;;;;4991310;28;20049;-66
2022/09/01 01:28:35;;;;;;;1.52;1.42;;;;;;;;;;5058915;28;20030;-67
2022/09/01 01:31:04;;;;;;;1.30;1.20;;;;;;;;;;4991596;28;20034;-66
2022/09/01 01:33:40;;;;;;;2.10;1.45;;;;;;;;;;5058607;28;20466;-66
2022/09/01 01:36:09;;;;;;;1.48;1.20;;;;;;;;;;5075438;28;20022;-67
2022/09/01 01:38:34;;;;;;;2.28;1.60;;;;;;;;;;5058609;28;20437;-66
2022/09/01 01:41:01;;;;;;;2.95;1.45;;;;;;;;;;4991587;28;20039;-67
2022/09/01 01:43:27;;;;;;;2.05;1.33;;;;;;;;;;5059177;28;20023;-64
2022/09/01 01:45:57;;;;;;;1.67;1.58;;;;;;;;;;4991596;28;20026;-64
2022/09/01 01:48:28;;;;;;;1.55;1.20;;;;;;;;;;4991887;28;20078;-64
2022/09/01 01:50:56;;;;;;;1.65;1.50;;;;;;;;;;5058271;28;20121;-64
2022/09/01 01:53:22;;;;;;;2.15;1.38;;;;;;;;;;5058860;28;20351;-64
2022/09/01 01:55:48;;;;;;;2.50;1.30;;;;;;;;;;5075347;28;20038;-64
2022/09/01 01:58:15;;;;;;;2.45;1.27;;;;;;;;;;5062181;28;20359;-64
2022/09/01 02:00:45;;;;;;;2.88;1.20;;;;;;;;;;5062312;28;20034;-66
2022/09/01 02:03:17;;;;;;;1.40;1.30;;;;;;;;;;5062853;28;20030;-67
2022/09/01 02:05:44;;;;;;;1.45;1.05;;;;;;;;;;5079266;28;20358;-66
2022/09/01 02:08:10;;;;;;;1.65;1.23;;;;;;;;;;5061899;28;20030;-66
2022/09/01 02:10:41;;;;;;;1.67;1.23;;;;;;;;;;5078997;28;20038;-67
2022/09/01 02:13:07;;;;;;;1.63;1.20;;;;;;;;;;5062390;28;20113;-66
2022/09/01 02:15:42;;;;;;;1.90;1.17;;;;;;;;;;4994576;28;20068;-65
2022/09/01 02:18:08;;;;;;;2.47;1.10;;;;;;;;;;4994527;28;20042;-67
2022/09/01 02:20:33;;;;;;;1.33;1.25;;;;;;;;;;5079063;28;20026;-66
2022/09/01 02:23:08;;;;;;;1.63;1.33;;;;;;;;;;5062208;28;20031;-66
2022/09/01 02:25:35;;;;;;;2.67;1.10;;;;;;;;;;4994161;28;20448;-67
2022/09/01 02:28:02;;;;;;;2.22;1.10;;;;;;;;;;4994411;28;20030;-63
2022/09/01 02:30:31;;;;;;;1.63;1.30;;;;;;;;;;5078707;28;20034;-62
2022/09/01 02:33:00;;;;;;;2.78;1.42;;;;;;;;;;4994561;28;20029;-63
2022/09/01 02:35:36;;;;;;;1.63;1.52;;;;;;;;;;5078554;28;20080;-63
2022/09/01 02:38:05;;;;;;;1.00;0.93;;;;;;;;;;5078180;28;20113;-64
2022/09/01 02:40:32;;;;;;;1.58;1.48;;;;;;;;;;5061595;28;20027;-64
2022/09/01 02:42:58;;;;;;;1.42;1.20;;;;;;;;;;5078694;28;20026;-64
2022/09/01 02:45:24;;;;;;;1.60;1.50;;;;;;;;;;4994275;28;20010;-63
2022/09/01 02:47:52;;;;;;;1.20;1.10;;;;;;;;;;4994236;28;20038;-63
2022/09/01 02:50:18;;;;;;;2.97;1.45;;;;;;;;;;5061299;28;20050;-64
2022/09/01 02:52:45;;;;;;;1.30;1.20;;;;;;;;;;5062144;28;20080;-63
2022/09/01 02:55:11;;;;;;;1.83;1.27;;;;;;;;;;5061141;28;20033;-64
2022/09/01 02:57:37;;;;;;;2.83;1.55;;;;;;;;;;5078248;28;20038;-64
2022/09/01 03:00:04;;;;;;;2.50;1.67;;;;;;;;;;5061652;28;20083;-63
2022/09/01 03:02:30;;;;;;;1.95;1.30;;;;;;;;;;5078386;28;20121;-64
2022/09/01 03:04:56;;;;;;;1.50;1.35;;;;;;;;;;5061469;28;20038;-63
2022/09/01 03:07:24;;;;;;;1.60;1.30;;;;;;;;;;5078035;28;20035;-65
2022/09/01 03:09:51;;;;;;;2.08;1.30;;;;;;;;;;5060308;28;20030;-63
2022/09/01 03:12:18;;;;;;;2.35;1.20;;;;;;;;;;5061653;28;20032;-64
2022/09/01 03:14:44;;;;;;;1.63;1.40;;;;;;;;;;4993345;28;20109;-62
2022/09/01 03:17:10;;;;;;;1.50;1.30;;;;;;;;;;4993385;28;20031;-63
2022/09/01 03:19:44;;;;;;;2.60;1.40;;;;;;;;;;5061163;28;20023;-63
2022/09/01 03:22:10;;;;;;;1.75;1.40;;;;;;;;;;5061161;28;20043;-62
2022/09/01 03:24:37;;;;;;;1.88;1.40;;;;;;;;;;5075823;28;20036;-66
2022/09/01 03:27:03;;;;;;;2.13;1.80;;;;;;;;;;5077660;28;20040;-66
2022/09/01 03:29:29;;;;;;;1.80;1.50;;;;;;;;;;5078536;28;20039;-66
2022/09/01 03:31:54;;;;;;;1.83;1.60;;;;;;;;;;5078252;28;20029;-67
2022/09/01 03:34:22;;;;;;;1.50;1.40;;;;;;;;;;5077562;28;20016;-67
2022/09/01 03:36:50;;;;;;;1.55;1.20;;;;;;;;;;5077655;28;20046;-67
2022/09/01 03:39:19;;;;;;;1.75;1.48;;;;;;;;;;5078136;28;20027;-66
2022/09/01 03:41:45;;;;;;;1.77;1.58;;;;;;;;;;5077627;28;20024;-66
2022/09/01 03:44:15;;;;;;;1.60;1.50;;;;;;;;;;5096298;28;20065;-65
2022/09/01 03:46:41;;;;;;;;;;;;;;;;;;5095193;28;20077;-65
2022/09/01 03:49:07;;;;;;;3.42;1.70;;;;;;;;;;5077887;28;19904;-65
2022/09/01 03:51:36;;;;;;;2.65;1.70;;;;;;;;;;5094832;28;20428;-66
2022/09/01 03:54:02;;;;;;;2.42;1.42;;;;;;;;;;5077750;28;20418;-66
2022/09/01 03:56:28;;;;;;;1.83;1.70;;;;;;;;;;5094432;28;20024;-66
2022/09/01 03:58:55;;;;;;;1.60;1.40;;;;;;;;;;5094315;28;20016;-65
2022/09/01 04:01:20;;;;;;;2.42;1.40;;;;;;;;;;5094400;28;20399;-63
2022/09/01 04:03:47;;;;;;;1.70;1.60;;;;;;;;;;5095197;28;20020;-66
2022/09/01 04:06:18;;;;;;;1.70;1.60;;;;;;;;;;5077300;28;20024;-66
2022/09/01 04:08:45;;;;;;;2.55;1.60;;;;;;;;;;5094074;28;20128;-66
2022/09/01 04:11:12;;;;;;;1.77;1.50;;;;;;;;;;5094550;28;20460;-66
2022/09/01 04:13:40;;;;;;;2.08;1.70;;;;;;;;;;5093252;28;20032;-66
2022/09/01 04:18:03;;;;;;;2.03;1.70;;;;;;;;;;5093202;28;20125;-67
2022/09/01 04:18:55;;;;;;;2.50;1.70;;;;;;;;;;5094399;28;20016;-67
2022/09/01 04:21:20;;;;;;;1.58;1.48;;;;;;;;;;5076072;28;20108;-68
2022/09/01 04:23:47;;;;;;;2.63;1.60;;;;;;;;;;5094291;28;20058;-68
2022/09/01 04:26:19;;;;;;;2.25;1.65;;;;;;;;;;5094476;28;20028;-67
2022/09/01 04:28:47;;;;;;;2.72;1.60;;;;;;;;;;5094328;28;20031;-67
2022/09/01 04:31:16;;;;;;;1.70;1.60;;;;;;;;;;5094398;28;20351;-67
2022/09/01 04:33:45;;;;;;;4.70;1.60;;;;;;;;;;5092739;28;20377;-67
2022/09/01 04:36:18;;;;;;;2.05;1.90;;;;;;;;;;5092971;28;20012;-68
2022/09/01 04:38:53;;;;;;;1.80;1.48;;;;;;;;;;5091976;28;20051;-68
2022/09/01 04:41:19;;;;;;;3.33;1.70;;;;;;;;;;5092476;28;20020;-68
2022/09/01 04:43:46;;;;;;;2.00;1.77;;;;;;;;;;5075804;28;20016;-67
2022/09/01 04:46:15;;;;;;;1.98;1.50;;;;;;;;;;5092749;28;20021;-67
2022/09/01 04:48:43;;;;;;;3.13;1.40;;;;;;;;;;5094086;28;20064;-67
2022/09/01 04:51:09;;;;;;;1.80;1.70;;;;;;;;;;5092596;28;20492;-68
2022/09/01 04:53:49;;;;;;;3.42;1.60;;;;;;;;;;5078183;28;20046;-66
2022/09/01 04:56:19;;;;;;;1.67;1.58;;;;;;;;;;5075580;28;20035;-67
2022/09/01 04:58:54;;;;;;;1.45;1.35;;;;;;;;;;5092613;28;20027;-67
2022/09/01 05:01:22;;;;;;;2.42;1.55;;;;;;;;;;5075181;28;20020;-66
2022/09/01 05:03:55;;;;;;;1.48;1.35;;;;;;;;;;5093779;28;20035;-66
2022/09/01 05:06:38;;;;;;;;;;;;;;;;;;5092528;28;20212;-66
2022/09/01 05:09:05;;;;;;;1.88;1.33;;;;;;;;;;5075859;28;19951;-67
2022/09/01 05:11:48;;;;;;;1.60;1.50;;;;;;;;;;5074951;28;20059;-67
2022/09/01 05:14:21;;;;;;;2.17;1.23;;;;;;;;;;5074614;28;20032;-66
2022/09/01 05:16:47;;;;;;;8.35;1.88;;;;;;;;;;5091145;28;20449;-66
2022/09/01 05:19:16;;;;;;;1.58;1.35;;;;;;;;;;5091467;28;20040;-67
2022/09/01 05:21:44;;;;;;;1.95;1.30;;;;;;;;;;5075313;28;20028;-66
2022/09/01 05:24:16;;;;;;;1.33;1.17;;;;;;;;;;5075549;28;20044;-67
2022/09/01 05:26:43;;;;;;;1.45;1.35;;;;;;;;;;5092457;28;20391;-67
2022/09/01 05:29:16;;;;;;;1.85;1.60;;;;;;;;;;5075621;28;20471;-67
2022/09/01 05:31:46;;;;;;;2.10;1.40;;;;;;;;;;5091682;28;20032;-66
2022/09/01 05:34:12;;;;;;;1.73;1.48;;;;;;;;;;5093968;28;20020;-66
2022/09/01 05:36:41;;;;;;;1.98;1.58;;;;;;;;;;5092305;28;20545;-67
2022/09/01 05:39:09;;;;;;;1.38;1.27;;;;;;;;;;5093291;28;20047;-66
2022/09/01 05:41:36;;;;;;;2.58;1.42;;;;;;;;;;5075600;28;20032;-66
2022/09/01 05:44:03;;;;;;;2.50;1.50;;;;;;;;;;5092324;28;20104;-66
2022/09/01 05:46:28;;;;;;;2.35;1.30;;;;;;;;;;5092291;28;20027;-63
2022/09/01 05:48:56;;;;;;;1.40;1.30;;;;;;;;;;5075501;28;20016;-64
2022/09/01 05:51:25;;;;;;;2.17;1.40;;;;;;;;;;5092021;28;20035;-65
2022/09/01 05:53:51;;;;;;;1.75;1.30;;;;;;;;;;5092036;28;20490;-63
2022/09/01 05:56:18;;;;;;;2.42;1.40;;;;;;;;;;5092737;28;20113;-63
2022/09/01 05:58:46;;;;;;;1.40;1.30;;;;;;;;;;5092224;28;20024;-64
2022/09/01 06:01:15;;;;;;;2.40;1.20;;;;;;;;;;5093015;28;20024;-63
2022/09/01 06:03:43;;;;;;;1.30;1.20;;;;;;;;;;5074694;28;20043;-63
2022/09/01 06:06:11;;;;;;;3.70;1.55;;;;;;;;;;5075221;28;20020;-63
2022/09/01 06:08:37;;;;;;;3.08;1.38;;;;;;;;;;5075346;28;20008;-64
2022/09/01 06:11:11;;;;;;;1.40;1.30;;;;;;;;;;5075227;28;20035;-64
2022/09/01 06:13:40;;;;;;;1.40;1.10;;;;;;;;;;5091829;28;20107;-64
2022/09/01 06:16:07;;;;;;;1.23;1.13;;;;;;;;;;5075177;28;20474;-64
2022/09/01 06:18:33;;;;;;;14.52;2.03;;;;;;;;;;5092307;28;20103;-62
2022/09/01 06:21:02;;;;;;;1.33;0.98;;;;;;;;;;5091758;28;20507;-64
2022/09/01 06:23:28;;;;;;;1.73;1.20;;;;;;;;;;5074321;28;20016;-63
2022/09/01 06:25:54;;;;;;;1.45;1.20;;;;;;;;;;5091934;28;20075;-63
2022/09/01 06:28:22;;;;;;;1.27;1.08;;;;;;;;;;5073817;28;20331;-64
2022/09/01 06:30:49;;;;;;;1.15;1.02;;;;;;;;;;5075478;22;20068;-64
2022/09/01 06:33:15;;;;;;;2.00;1.10;;;;;;;;;;5071688;28;20078;-63
2022/09/01 06:35:46;;;;;;;1.52;1.02;;;;;;;;;;5071701;28;20400;-64
2022/09/01 06:38:12;;;;;;;1.58;1.00;;;;;;;;;;5072878;28;20040;-64
2022/09/01 06:40:43;;;;;;;1.58;1.00;;;;;;;;;;5071633;28;20021;-64
2022/09/01 06:43:16;;;;;;;1.33;1.17;;;;;;;;;;5089859;28;20021;-64
2022/09/01 06:45:53;;;;;;;2.13;0.80;;;;;;;;;;5075176;28;20124;-63
2022/09/01 06:48:21;;;;;;;1.00;0.90;;;;;;;;;;5076336;28;20020;-62
2022/09/01 06:50:46;;;;;;;1.98;0.88;;;;;;;;;;5075058;28;20053;-64
2022/09/01 06:53:15;;;;;;;0.70;0.70;;;;;;;;;;5076281;28;20060;-64
2022/09/01 06:55:42;;;;;;;1.15;1.05;;;;;;;;;;5074973;28;20049;-64
2022/09/01 06:58:10;;;;;;;0.98;0.77;;;;;;;;;;5074872;28;20028;-62
2022/09/01 07:00:41;;;;;;;0.90;0.90;;;;;;;;;;5074895;28;20047;-64
2022/09/01 07:03:08;;;;;;;0.77;0.75;;;;;;;;;;5075692;28;20067;-64
2022/09/01 07:05:45;;;;;;;1.38;0.90;;;;;;;;;;5074930;28;20392;-63
2022/09/01 07:08:16;;;;;;;1.48;0.90;;;;;;;;;;5075207;28;20025;-64
2022/09/01 07:10:55;;;;;;;2.25;0.70;;;;;;;;;;5075009;28;20431;-64
2022/09/01 07:13:22;;;;;;;0.80;0.80;;;;;;;;;;5074686;28;20029;-62
2022/09/01 07:15:49;;;;;;;1.10;0.80;;;;;;;;;;5075240;28;20031;-63
2022/09/01 07:18:19;;;;;;;1.02;0.80;;;;;;;;;;5074503;28;20391;-62
2022/09/01 07:20:47;;;;;;;0.80;0.80;;;;;;;;;;5074172;28;20025;-63
2022/09/01 07:23:15;;;;;;;1.23;0.82;;;;;;;;;;5073647;28;20418;-63
2022/09/01 07:25:42;;;;;;;0.90;0.80;;;;;;;;;;5074124;28;20467;-64
2022/09/01 07:28:18;;;;;;;1.42;0.93;;;;;;;;;;5074732;28;20047;-64
2022/09/01 07:30:47;;;;;;;1.52;0.60;;;;;;;;;;5073628;28;20553;-62
2022/09/01 07:33:14;;;;;;;0.77;0.73;;;;;;;;;;5073349;28;20123;-64
2022/09/01 07:35:40;;;;;;;1.23;0.80;;;;;;;;;;5073723;28;20051;-63
2022/09/01 07:38:08;;;;;;;1.15;0.95;;;;;;;;;;5073525;28;20056;-63
2022/09/01 07:40:36;;;;;;;3.65;1.00;;;;;;;;;;5073832;28;20013;-63
2022/09/01 07:43:23;;;;;;;1.40;1.00;;;;;;;;;;5074450;28;20090;-63
2022/09/01 07:46:18;;;;;;;0.93;0.80;;;;;;;;;;5074086;28;20052;-63
2022/09/01 07:48:45;;;;;;;1.67;1.02;;;;;;;;;;5072812;28;20029;-63
2022/09/01 07:51:12;;;;;;;0.80;0.80;;;;;;;;;;5072743;28;20021;-64
2022/09/01 07:53:38;;;;;;;2.35;0.60;;;;;;;;;;5072647;28;20052;-62
2022/09/01 07:56:09;;;;;;;0.50;0.50;;;;;;;;;;5073505;28;20044;-63
2022/09/01 07:58:43;;;;;;;0.80;0.60;;;;;;;;;;5072605;28;20483;-62
2022/09/01 08:01:20;;;;;;;0.63;0.60;;;;;;;;;;5072641;28;20105;-63
2022/09/01 08:03:49;;;;;;;1.95;0.63;;;;;;;;;;5072601;28;20112;-63
2022/09/01 08:06:18;;;;;;;0.65;0.57;;;;;;;;;;5072565;28;20103;-63
2022/09/01 08:08:44;;;;;;;2.53;0.82;;;;;;;;;;5073784;28;20078;-64
2022/09/01 08:11:14;;;;;;;1.65;0.77;;;;;;;;;;5072419;28;20020;-64
2022/09/01 08:13:40;;;;;;;1.02;0.60;;;;;;;;;;5072099;28;20021;-64
2022/09/01 08:16:07;;;;;;;1.92;0.95;;;;;;;;;;5072346;28;20422;-62
2022/09/01 08:18:33;;;;;;;3.00;1.00;;;;;;;;;;5071879;28;20051;-64
2022/09/01 08:20:58;;;;;;;1.08;0.80;;;;;;;;;;5072174;28;20472;-63
2022/09/01 08:23:54;;;;;;;2.83;0.85;;;;;;;;;;5065859;28;20090;-64
2022/09/01 08:26:21;;;;;;;0.93;0.57;;;;;;;;;;5072440;28;20020;-64
2022/09/01 08:28:46;;;;;;;1.40;1.30;;;;;;;;;;5071867;28;20013;-64
2022/09/01 08:31:14;;;;;;;0.60;0.60;;;;;;;;;;5071852;28;20063;-64
2022/09/01 08:33:40;;;;;;;3.75;2.03;;;;;;;;;;5072358;28;20111;-62
2022/09/01 08:36:07;;;;;;;1.60;1.38;;;;;;;;;;5055318;28;20103;-63
2022/09/01 08:38:33;;;;;;;0.52;0.52;;;;;;;;;;5074045;28;20115;-62
2022/09/01 08:40:59;;;;;;;0.40;0.40;;;;;;;;;;5073353;28;20487;-63
2022/09/01 08:43:49;;;;;;;0.57;0.57;;;;;;;;;;5072944;28;20027;-63
2022/09/01 08:46:29;;;;;;;0.50;0.50;;;;;;;;;;5072410;28;20395;-63
2022/09/01 08:48:58;;;;;;;2.33;0.55;;;;;;;;;;5072896;28;20069;-63
2022/09/01 08:51:38;;;;;;;2.10;1.30;;;;;;;;;;5072783;28;20014;-64
2022/09/01 08:54:20;;;;;;;0.50;0.47;;;;;;;;;;5072755;28;20032;-63
2022/09/01 08:56:51;;;;;;;0.55;0.50;;;;;;;;;;5072642;28;20555;-63
2022/09/01 08:59:19;;;;;;;0.57;0.57;;;;;;;;;;5072053;28;20502;-64
2022/09/01 09:02:22;;;;;;;1.38;0.63;;;;;;;;;;5073893;28;20021;-64
2022/09/01 09:04:50;;;;;;;0.70;0.70;;;;;;;;;;5073707;28;20058;-64
2022/09/01 09:07:21;;;;;;;0.77;0.50;;;;;;;;;;5074105;28;20051;-63
2022/09/01 09:09:55;;;;;;;1.85;0.50;;;;;;;;;;5073768;28;20055;-63
2022/09/01 09:12:40;;;;;;;1.13;0.70;;;;;;;;;;5074003;28;20029;-64
2022/09/01 09:15:15;;;;;;;0.77;0.50;;;;;;;;;;5072190;28;20029;-64
2022/09/01 09:17:45;;;;;;;0.57;0.57;;;;;;;;;;5073049;28;20040;-63
2022/09/01 09:20:10;;;;;;;0.60;0.60;;;;;;;;;;5072415;28;20032;-63
2022/09/01 09:22:35;;;;;;;0.82;0.70;;;;;;;;;;5073068;28;20537;-64
2022/09/01 09:25:06;;;;;;;1.13;0.68;;;;;;;;;;5073603;28;20023;-64
2022/09/01 09:27:34;;;;;;;1.02;0.70;;;;;;;;;;5072871;28;20465;-62
2022/09/01 09:30:25;;;;;;;1.77;0.80;;;;;;;;;;5073272;28;20052;-63
2022/09/01 09:33:03;;;;;;;1.92;0.70;;;;;;;;;;4972145;28;20378;-64
2022/09/01 09:35:38;;;;;;;0.70;0.70;;;;;;;;;;4972071;28;20031;-63
2022/09/01 09:38:21;;;;;;;1.42;0.60;;;;;;;;;;4972364;28;20160;-64
2022/09/01 09:41:04;;;;;;;2.05;0.70;;;;;;;;;;4972004;28;20031;-64
2022/09/01 09:43:50;;;;;;;1.77;0.70;;;;;;;;;;4972137;28;20037;-64
2022/09/01 09:46:32;;;;;;;1.58;0.60;;;;;;;;;;4971356;28;20056;-64
2022/09/01 09:49:06;;;;;;;2.30;0.80;;;;;;;;;;4971864;28;20039;-63
2022/09/01 09:51:32;;;;;;;3.38;0.60;;;;;;;;;;4972108;28;20023;-64
2022/09/01 09:54:30;;;;;;;0.70;0.70;;;;;;;;;;4972222;28;20564;-62
2022/09/01 09:57:07;;;;;;;1.58;0.55;;;;;;;;;;4949351;28;20479;-63
2022/09/01 09:59:38;;;;;;;0.70;0.45;;;;;;;;;;4986854;28;20416;-63
2022/09/01 10:02:24;;;;;;;0.60;0.60;;;;;;;;;;4971208;28;20069;-64
2022/09/01 10:04:50;;;;;;;0.50;0.50;;;;;;;;;;4971770;28;20031;-64
2022/09/01 10:07:23;;;;;;;2.78;0.85;;;;;;;;;;4970795;28;20073;-63
2022/09/01 10:09:49;;;;;;;1.65;0.98;;;;;;;;;;4972040;28;20390;-63
2022/09/01 10:12:15;;;;;;;0.90;0.63;;;;;;;;;;4971505;28;20461;-64
2022/09/01 10:14:42;;;;;;;1.00;0.68;;;;;;;;;;4986401;28;20125;-64
2022/09/01 10:17:13;;;;;;;0.80;0.70;;;;;;;;;;4970164;28;20126;-64
2022/09/01 10:19:42;;;;;;;1.55;1.02;;;;;;;;;;4975192;28;20027;-63
2022/09/01 10:22:09;;;;;;;0.70;0.70;;;;;;;;;;4974473;28;20497;-64
2022/09/01 10:24:35;;;;;;;2.00;1.00;;;;;;;;;;4975118;28;20041;-64
2022/09/01 10:27:02;;;;;;;1.60;0.68;;;;;;;;;;4974578;28;20053;-64
2022/09/01 10:29:31;;;;;;;0.50;0.43;;;;;;;;;;4975279;28;20035;-64
2022/09/01 10:31:59;;;;;;;1.67;0.50;;;;;;;;;;4987915;28;20069;-63
2022/09/01 10:34:26;;;;;;;0.60;0.50;;;;;;;;;;4993947;28;20056;-64
2022/09/01 10:36:52;;;;;;;0.40;0.40;;;;;;;;;;4994134;28;20072;-64
2022/09/01 10:39:18;;;;;;;0.70;0.70;;;;;;;;;;4994080;28;20111;-68
2022/09/01 10:41:49;;;;;;;0.55;0.55;;;;;;;;;;4994242;28;20030;-68
2022/09/01 10:44:37;;;;;;;2.72;0.90;;;;;;;;;;4994178;28;20148;-68
2022/09/01 10:47:10;;;;;;;1.58;0.75;;;;;;;;;;4993438;28;20483;-68
2022/09/01 10:49:45;;;;;;;1.85;0.70;;;;;;;;;;4993244;28;20049;-68
2022/09/01 10:52:31;;;;;;;0.70;0.50;;;;;;;;;;4992738;28;20363;-68
2022/09/01 10:54:59;;;;;;;0.75;0.43;;;;;;;;;;4992554;28;20035;-68
2022/09/01 10:57:30;;;;;;;13.88;1.45;;;;;;;;;;4992523;28;20386;-68
2022/09/01 11:00:14;;;;;;;0.60;0.60;;;;;;;;;;4991924;28;20446;-68
2022/09/01 11:02:39;;;;;;;0.70;0.70;;;;;;;;;;4993627;28;20030;-68
2022/09/01 11:05:04;;;;;;;1.63;0.73;;;;;;;;;;4993615;28;20374;-68
2022/09/01 11:07:32;;;;;;;1.10;0.60;;;;;;;;;;4993810;28;20038;-68
2022/09/01 11:10:12;;;;;;;0.70;0.68;;;;;;;;;;4994071;28;20114;-68
2022/09/01 11:12:49;;;;;;;0.60;0.60;;;;;;;;;;4993494;28;20099;-67
2022/09/01 11:15:14;;;;;;;1.25;0.70;;;;;;;;;;4993734;28;20389;-68
2022/09/01 11:17:51;;;;;;;0.70;0.60;;;;;;;;;;4993618;28;20037;-68
2022/09/01 11:20:25;;;;;;;0.93;0.70;;;;;;;;;;5061601;28;20113;-69
2022/09/01 11:23:00;;;;;;;1.33;0.60;;;;;;;;;;4993325;28;20389;-69
2022/09/01 11:25:36;;;;;;;1.90;0.55;;;;;;;;;;4993587;28;20026;-68
2022/09/01 11:28:05;;;;;;;0.77;0.52;;;;;;;;;;4993803;28;20458;-68
2022/09/01 11:30:30;;;;;;;0.68;0.68;;;;;;;;;;4991877;28;20022;-67
2022/09/01 11:32:58;;;;;;;0.45;0.45;;;;;;;;;;4993502;28;20057;-68
2022/09/01 11:35:25;;;;;;;1.08;0.98;;;;;;;;;;5060664;28;20558;-68
2022/09/01 11:37:53;;;;;;;0.50;0.50;;;;;;;;;;5077160;28;20112;-68
2022/09/01 11:40:21;;;;;;;0.47;0.40;;;;;;;;;;4993381;28;20105;-68
2022/09/01 11:42:47;;;;;;;0.95;0.50;;;;;;;;;;4993338;28;20026;-68
2022/09/01 11:45:20;;;;;;;0.55;0.52;;;;;;;;;;5060282;28;20022;-68
2022/09/01 11:47:49;;;;;;;1.17;1.05;;;;;;;;;;4993252;28;20034;-68
2022/09/01 11:50:28;;;;;;;1.08;0.50;;;;;;;;;;4992960;28;20096;-68
2022/09/01 11:53:05;;;;;;;0.53;0.47;;;;;;;;;;4992935;28;20115;-68
2022/09/01 11:55:41;;;;;;;1.42;0.50;;;;;;;;;;4992785;28;20038;-68
2022/09/01 11:58:27;;;;;;;1.70;0.50;;;;;;;;;;4993015;28;20477;-68
2022/09/01 12:01:10;;;;;;;0.50;0.50;;;;;;;;;;4993013;28;20038;-64
2022/09/01 12:03:35;;;;;;;0.52;0.50;;;;;;;;;;4992998;28;20067;-63
2022/09/01 12:06:02;;;;;;;0.45;0.38;;;;;;;;;;4992986;28;20018;-63
2022/09/01 12:08:31;;;;;;;0.43;0.40;;;;;;;;;;5059500;28;20037;-64
2022/09/01 12:11:08;;;;;;;1.50;0.50;;;;;;;;;;5059365;28;20027;-64
2022/09/01 12:13:34;;;;;;;0.75;0.50;;;;;;;;;;4992383;28;20023;-63
2022/09/01 12:16:00;;;;;;;0.40;0.40;;;;;;;;;;5058680;28;20019;-65
2022/09/01 12:18:27;;;;;;;0.40;0.40;;;;;;;;;;4991400;28;20354;-64
2022/09/01 12:20:55;;;;;;;2.13;0.70;;;;;;;;;;4991126;28;20022;-64
2022/09/01 12:23:28;;;;;;;0.32;0.32;;;;;;;;;;4991333;28;20030;-65
2022/09/01 12:25:55;;;;;;;0.40;0.40;;;;;;;;;;4991296;28;20091;-64
2022/09/01 12:28:22;;;;;;;1.38;0.40;;;;;;;;;;5058560;28;20026;-64
2022/09/01 12:30:48;;;;;;;0.70;0.70;;;;;;;;;;4991136;28;20434;-64
2022/09/01 12:33:16;;;;;;;0.68;0.60;;;;;;;;;;5058207;28;20038;-63
2022/09/01 12:35:42;;;;;;;2.30;0.50;;;;;;;;;;4990801;28;20037;-62
2022/09/01 12:38:21;;;;;;;0.65;0.52;;;;;;;;;;4991119;28;20474;-64
2022/09/01 12:40:48;;;;;;;0.77;0.30;;;;;;;;;;5057754;28;20081;-63
2022/09/01 12:43:26;;;;;;;0.40;0.40;;;;;;;;;;4991014;28;20045;-64
2022/09/01 12:45:52;;;;;;;0.50;0.50;;;;;;;;;;4990957;28;20467;-64
2022/09/01 12:48:28;;;;;;;0.35;0.30;;;;;;;;;;4990954;28;20105;-64
2022/09/01 12:50:54;;;;;;;0.35;0.35;;;;;;;;;;4990922;28;20466;-64
2022/09/01 12:53:21;;;;;;;0.40;0.40;;;;;;;;;;4990614;28;20022;-65
2022/09/01 12:56:05;;;;;;;0.80;0.80;;;;;;;;;;4990553;28;20082;-63
2022/09/01 12:58:31;;;;;;;1.00;0.60;;;;;;;;;;4990873;28;20546;-64
2022/09/01 13:01:01;;;;;;;0.40;0.40;;;;;;;;;;4990809;28;20022;-64
2022/09/01 13:03:28;;;;;;;0.93;0.30;;;;;;;;;;4990715;28;20113;-64
2022/09/01 13:05:54;;;;;;;0.47;0.40;;;;;;;;;;4990720;28;20022;-64
2022/09/01 13:08:25;;;;;;;0.82;0.50;;;;;;;;;;5057529;28;20342;-62
2022/09/01 13:10:52;;;;;;;;;;;;;;;;;;4991368;28;20044;-64
2022/09/01 13:13:18;;;;;;;0.40;0.40;;;;;;;;;;4991400;28;19906;-64
2022/09/01 13:15:46;;;;;;;0.30;0.30;;;;;;;;;;4991228;28;20037;-64
2022/09/01 13:18:12;;;;;;;0.40;0.38;;;;;;;;;;5058624;28;20030;-64
2022/09/01 13:20:38;;;;;;;0.50;0.40;;;;;;;;;;4991437;28;20027;-64
2022/09/01 13:23:03;;;;;;;0.52;0.52;;;;;;;;;;4991319;28;20021;-64
2022/09/01 13:25:28;;;;;;;0.57;0.40;;;;;;;;;;4990485;28;20076;-63
2022/09/01 13:27:54;;;;;;;0.52;0.47;;;;;;;;;;4989357;28;20072;-64
2022/09/01 13:30:21;;;;;;;0.85;0.65;;;;;;;;;;4989820;28;20027;-63
2022/09/01 13:32:47;;;;;;;1.85;0.40;;;;;;;;;;4989015;28;20121;-65
2022/09/01 13:35:14;;;;;;;0.50;0.50;;;;;;;;;;4989020;28;20132;-63
2022/09/01 13:37:40;;;;;;;1.20;0.50;;;;;;;;;;4989196;28;20038;-64
2022/09/01 13:40:07;;;;;;;0.50;0.40;;;;;;;;;;4989760;28;20062;-64
2022/09/01 13:42:32;;;;;;;0.63;0.40;;;;;;;;;;4989812;28;20072;-64
2022/09/01 13:44:58;;;;;;;0.40;0.40;;;;;;;;;;4989386;28;20030;-64
2022/09/01 13:47:23;;;;;;;0.98;0.93;;;;;;;;;;4990339;28;20022;-64
2022/09/01 13:49:49;;;;;;;2.13;0.40;;;;;;;;;;4990175;28;20026;-64
2022/09/01 13:52:14;;;;;;;0.75;0.47;;;;;;;;;;4989679;28;20495;-62
2022/09/01 13:54:43;;;;;;;0.40;0.40;;;;;;;;;;4991641;28;20030;-64
2022/09/01 13:57:08;;;;;;;0.52;0.40;;;;;;;;;;4991569;28;20038;-64
2022/09/01 13:59:33;;;;;;;2.00;0.60;;;;;;;;;;4991521;28;20041;-63
2022/09/01 14:02:00;;;;;;;1.05;0.38;;;;;;;;;;5060064;28;20019;-63
2022/09/01 14:04:25;;;;;;;1.20;0.40;;;;;;;;;;5077458;28;20064;-64
2022/09/01 14:06:51;;;;;;;1.30;0.50;;;;;;;;;;4993083;28;20076;-64
2022/09/01 14:09:16;;;;;;;0.30;0.30;;;;;;;;;;4993126;28;20115;-63
2022/09/01 14:11:42;;;;;;;1.20;0.40;;;;;;;;;;5062229;28;20026;-62
2022/09/01 14:14:07;;;;;;;0.52;0.47;;;;;;;;;;4994813;28;20038;-64
2022/09/01 14:16:33;;;;;;;1.25;0.45;;;;;;;;;;4994486;28;20025;-64
2022/09/01 14:18:58;;;;;;;1.13;0.35;;;;;;;;;;4993481;28;20087;-64
2022/09/01 14:21:24;;;;;;;1.80;0.50;;;;;;;;;;4993354;28;20101;-64
2022/09/01 14:23:50;;;;;;;0.52;0.47;;;;;;;;;;5061188;28;20034;-64
2022/09/01 14:26:16;;;;;;;0.38;0.30;;;;;;;;;;5061491;28;20361;-64
2022/09/01 14:28:46;;;;;;;0.40;0.40;;;;;;;;;;4994059;28;20038;-64
2022/09/01 14:31:13;;;;;;;0.30;0.30;;;;;;;;;;4994349;28;20042;-63
2022/09/01 14:33:38;;;;;;;0.40;0.40;;;;;;;;;;5078823;28;20041;-65
2022/09/01 14:36:05;;;;;;;0.63;0.40;;;;;;;;;;4994555;28;20030;-64
2022/09/01 14:38:31;;;;;;;0.40;0.40;;;;;;;;;;5061533;28;20382;-64
2022/09/01 14:40:56;;;;;;;0.50;0.50;;;;;;;;;;4994074;28;20027;-63
2022/09/01 14:43:22;;;;;;;0.45;0.45;;;;;;;;;;4994420;28;20485;-63
2022/09/01 14:45:47;;;;;;;0.40;0.40;;;;;;;;;;4993572;28;20108;-63
2022/09/01 14:48:14;;;;;;;0.85;0.43;;;;;;;;;;4993878;28;20026;-64
2022/09/01 14:50:41;;;;;;;0.38;0.38;;;;;;;;;;4993851;28;20094;-64
2022/09/01 14:53:06;;;;;;;0.57;0.50;;;;;;;;;;4993310;28;20105;-64
2022/09/01 14:55:32;;;;;;;0.73;0.70;;;;;;;;;;4994150;28;20061;-64
2022/09/01 14:57:59;;;;;;;2.72;0.50;;;;;;;;;;4993770;28;20466;-64
2022/09/01 15:00:25;;;;;;;1.27;0.40;;;;;;;;;;4993163;28;20030;-64